Belle Mina, AL (35615)

10:38 AM CDT on July 23, 2016 (GMT -0500)
APRSWXNET | | Change Station
Active Advisory: Heat Advisory

Elev 771 ft 34.73 °N, 86.75 °W | Updated 35 minutes ago

Clear
Clear
87 °F
Feels Like 94 °F
N
2
Wind Variable Wind from SE
Gusts 0.0 mph

Today
High -- | Low -- °F
--% Chance of Precip.
Yesterday
High -- | Low -- °F
Precip. -- in
Pressure 30.00 in
Visibility 10.0 miles
Clouds Clear
Heat Index 94 °F
Dew Point 73 °F
Humidity 63%
Rainfall in
Snow Depth Not available.
5:50 AM 7:55 PM
Waning Gibbous, 84% visible
METAR KHUA 231458Z AUTO 20005KT 10SM CLR 30/24 A3002 RMK AO2 SLP158 60000 T02950237 50003
Pressure 30.00 in
Visibility 10.0 miles
Clouds Clear
Heat Index 94 °F
Dew Point 73 °F
Humidity 63%
Rainfall in
Snow Depth Not available.
5:50 AM 7:55 PM
Waning Gibbous, 84% visible
METAR KHUA 231458Z AUTO 20005KT 10SM CLR 30/24 A3002 RMK AO2 SLP158 60000 T02950237 50003

10-Day Weather Forecast

Almanac

Astronomy

Jul. 23, 2016 Rise Set
Actual Time
Civil Twilight
Nautical Twilight
Astronomical Twilight
Moon
Length of Visible Light
Length of Day
Tomorrow will be .
, % of the Moon is Illuminated

Today's Extremes

State Highs State Lows

Community

WunderPhotos

Upload Photos

1,926,847 photos uploaded!

WunderBlog® & News

Nearby

Air Quality

  Air Quality AQ Index Pollutant
Not available.

Snow Depth

Station Depth Elevation

Earthquake Activity

City Distance Mag. Time & Date
Minimum magnitude displayed is 2.5.

Coastal Water Temperatures

Place Temperature

Stations

Nearby Weather Stations

Station Location Temp. Windchill Dew Point Humidity Wind Precip. Elev Updated Type
                   

Watches & Warnings

Heat Advisory
Issued: 9:27 AM CDT Jul. 23, 2016 – National Weather Service

... Heat advisory remains in effect until 7 PM CDT this evening...

* timing and areas affected... most of north Alabama and Lincoln
County in southern middle Tennessee... from 1 PM until 7 PM
CDT.

* Temperature... afternoon temperatures in the 92 to 97 degree
range... with heat index values from 105 to 110 degrees.

* Impacts... the combination of hot temperatures and high
humidity levels will be dangerous for those spending time
outdoors or in a facility with no air conditioning.

Precautionary/preparedness actions...

A heat advisory means that a period of hot temperatures is
expected. The combination of hot temperatures and high humidity
will combine to create a situation in which heat illnesses are
possible.

Take extra precautions if you work or spend time outside. When
possible... reschedule strenuous activities to early morning or
evening. Know the signs and symptoms of heat exhaustion and heat
stroke. Wear light weight and loose fitting clothing when
possible and drink plenty of water. Check up on relatives and
neighbors. Absolutely do not leave children or pets unattended in
vehicles!


Ktw